createdAt,value
2018-08-19T00:02:07.967Z,21.65
2018-08-19T00:04:37.384Z,21.62
2018-08-19T00:07:05.272Z,21.62
2018-08-19T00:09:33.324Z,21.60
2018-08-19T00:12:01.201Z,21.62
2018-08-19T00:14:31.848Z,21.64
2018-08-19T00:17:00.500Z,21.61
2018-08-19T00:19:28.871Z,21.59
2018-08-19T00:21:56.671Z,21.57
2018-08-19T00:24:24.647Z,21.56
2018-08-19T00:26:52.360Z,21.55
2018-08-19T00:29:25.504Z,21.54
2018-08-19T00:31:53.983Z,21.49
2018-08-19T00:34:29.988Z,21.49
2018-08-19T00:36:57.937Z,21.49
2018-08-19T00:39:25.590Z,21.54
2018-08-19T00:41:53.403Z,21.54
2018-08-19T00:44:21.180Z,21.54
2018-08-19T00:46:48.886Z,21.55
2018-08-19T00:49:16.507Z,21.54
2018-08-19T00:51:49.628Z,21.51
2018-08-19T00:54:17.349Z,21.50
2018-08-19T00:56:47.045Z,21.49
2018-08-19T00:59:14.662Z,21.44
2018-08-19T01:01:44.017Z,21.41
2018-08-19T01:04:11.755Z,21.42
2018-08-19T01:06:45.047Z,21.44
2018-08-19T01:09:12.722Z,21.44
2018-08-19T01:11:41.844Z,21.43
2018-08-19T01:14:11.060Z,21.35
2018-08-19T01:16:38.805Z,21.29
2018-08-19T01:19:06.812Z,21.25
2018-08-19T01:21:34.507Z,21.24
2018-08-19T01:24:04.277Z,21.27
2018-08-19T01:26:34.472Z,21.29
2018-08-19T01:29:02.159Z,21.32
2018-08-19T01:31:29.824Z,21.28
2018-08-19T01:33:57.589Z,21.26
2018-08-19T01:36:26.838Z,21.30
2018-08-19T01:38:54.450Z,21.32
2018-08-19T01:41:22.137Z,21.32
2018-08-19T01:44:00.837Z,21.36
2018-08-19T01:46:31.891Z,21.36
2018-08-19T01:48:59.525Z,21.32
2018-08-19T01:51:27.219Z,21.34
2018-08-19T01:53:54.863Z,21.35
2018-08-19T01:56:22.436Z,21.34
2018-08-19T01:58:50.067Z,21.30
2018-08-19T02:01:17.719Z,21.30
2018-08-19T02:03:45.376Z,21.22
2018-08-19T02:06:13.039Z,21.13
2018-08-19T02:08:40.742Z,21.05
2018-08-19T02:11:24.099Z,21.02
2018-08-19T02:13:53.574Z,21.00
2018-08-19T02:16:21.334Z,20.97
2018-08-19T02:18:48.978Z,20.92
2018-08-19T02:21:16.641Z,20.88
2018-08-19T02:23:44.312Z,20.82
2018-08-19T02:26:15.092Z,20.77
2018-08-19T02:28:42.734Z,20.74
2018-08-19T02:31:10.544Z,20.75
2018-08-19T02:33:38.120Z,20.74
2018-08-19T02:36:06.877Z,20.70
2018-08-19T02:38:35.384Z,20.70
2018-08-19T02:41:03.123Z,20.70
2018-08-19T02:43:30.877Z,20.73
2018-08-19T02:45:58.551Z,20.66
2018-08-19T02:48:45.257Z,20.69
2018-08-19T02:51:15.760Z,20.76
2018-08-19T02:53:44.658Z,20.73
2018-08-19T02:56:13.162Z,20.77
2018-08-19T02:58:41.402Z,20.78
2018-08-19T03:01:09.316Z,20.78
2018-08-19T03:03:36.975Z,20.79
2018-08-19T03:06:04.695Z,20.83
2018-08-19T03:08:32.426Z,20.83
2018-08-19T03:11:00.041Z,20.76
2018-08-19T03:13:27.677Z,20.68
2018-08-19T03:15:56.303Z,20.61
2018-08-19T03:18:24.099Z,20.68
2018-08-19T03:20:51.754Z,20.66
2018-08-19T03:23:19.426Z,20.66
2018-08-19T03:25:47.064Z,20.67
2018-08-19T03:28:14.695Z,20.65
2018-08-19T03:30:47.939Z,20.66
2018-08-19T03:33:15.582Z,20.66
2018-08-19T03:35:43.151Z,20.66
2018-08-19T03:38:13.927Z,20.66
2018-08-19T03:40:41.597Z,20.68
2018-08-19T03:43:09.907Z,20.67
2018-08-19T03:45:37.573Z,20.66
2018-08-19T03:48:05.305Z,20.62
2018-08-19T03:50:36.637Z,20.56
2018-08-19T03:53:04.565Z,20.51
2018-08-19T03:55:32.955Z,20.49
2018-08-19T03:58:02.459Z,20.37
2018-08-19T04:00:32.204Z,20.30
2018-08-19T04:02:59.891Z,20.31
2018-08-19T04:06:00.040Z,20.35
2018-08-19T04:08:33.834Z,20.38
2018-08-19T04:11:04.390Z,20.41
2018-08-19T04:13:34.495Z,20.46
2018-08-19T04:16:04.738Z,20.47
2018-08-19T04:18:34.540Z,20.52
2018-08-19T04:21:17.423Z,20.53
2018-08-19T04:23:47.831Z,20.56
2018-08-19T04:26:15.458Z,20.60
2018-08-19T04:28:44.118Z,20.63
2018-08-19T04:31:17.191Z,20.64
2018-08-19T04:33:47.216Z,20.68
2018-08-19T04:36:16.289Z,20.68
2018-08-19T04:38:44.000Z,20.71
2018-08-19T04:41:12.047Z,20.70
2018-08-19T04:43:39.706Z,20.59
2018-08-19T04:46:07.380Z,20.54
2018-08-19T04:48:35.045Z,20.60
2018-08-19T04:51:02.690Z,20.57
2018-08-19T04:53:31.747Z,20.57
2018-08-19T04:55:59.627Z,20.58
2018-08-19T04:58:27.241Z,20.65
2018-08-19T05:00:54.844Z,20.71
2018-08-19T05:03:22.531Z,20.72
2018-08-19T05:05:50.151Z,20.80
2018-08-19T05:08:17.920Z,20.83
2018-08-19T05:10:45.526Z,20.88
2018-08-19T05:13:13.342Z,20.87
2018-08-19T05:15:41.633Z,20.97
2018-08-19T05:18:09.531Z,21.08
2018-08-19T05:20:37.199Z,21.08
2018-08-19T05:23:04.938Z,21.09
2018-08-19T05:25:32.727Z,21.10
2018-08-19T05:28:06.594Z,21.17
2018-08-19T05:30:35.221Z,21.14
2018-08-19T05:33:04.058Z,21.14
2018-08-19T05:35:32.742Z,21.11
2018-08-19T05:38:01.509Z,21.20
2018-08-19T05:40:29.374Z,21.27
2018-08-19T05:42:57.072Z,21.28
2018-08-19T05:45:24.722Z,21.35
2018-08-19T05:48:04.583Z,21.45
2018-08-19T05:50:32.428Z,21.59
2018-08-19T05:53:00.045Z,21.78
2018-08-19T05:55:27.790Z,21.95
2018-08-19T05:57:55.436Z,22.11
2018-08-19T06:00:24.167Z,22.27
2018-08-19T06:02:52.998Z,22.30
2018-08-19T06:05:20.788Z,22.46
2018-08-19T06:07:55.740Z,22.45
2018-08-19T06:10:24.121Z,22.44
2018-08-19T06:12:51.734Z,22.55
2018-08-19T06:15:19.533Z,22.61
2018-08-19T06:17:47.181Z,22.65
2018-08-19T06:20:14.964Z,22.66
2018-08-19T06:22:42.591Z,22.75
2018-08-19T06:25:10.951Z,22.84
2018-08-19T06:27:44.702Z,23.01
2018-08-19T06:30:13.303Z,23.20
2018-08-19T06:32:41.102Z,23.35
2018-08-19T06:35:08.882Z,23.41
2018-08-19T06:37:36.529Z,23.68
2018-08-19T06:40:05.520Z,23.89
2018-08-19T06:42:33.179Z,24.08
2018-08-19T06:45:00.811Z,24.33
2018-08-19T06:47:29.574Z,24.39
2018-08-19T06:49:58.449Z,24.34
2018-08-19T06:52:26.600Z,24.27
2018-08-19T06:54:54.526Z,24.36
2018-08-19T06:57:22.247Z,24.52
2018-08-19T06:59:50.018Z,24.70
2018-08-19T07:02:17.786Z,24.98
2018-08-19T07:04:46.686Z,25.25
2018-08-19T07:07:15.496Z,25.49
2018-08-19T07:09:43.208Z,25.65
2018-08-19T07:12:17.341Z,25.98
2018-08-19T07:14:45.535Z,25.99
2018-08-19T07:17:13.506Z,26.06
2018-08-19T07:19:41.256Z,26.06
2018-08-19T07:22:09.351Z,26.18
2018-08-19T07:24:38.835Z,26.31
2018-08-19T07:27:08.250Z,26.48
2018-08-19T07:29:35.912Z,26.72
2018-08-19T07:32:03.738Z,26.81
2018-08-19T07:34:31.429Z,26.82
2018-08-19T07:36:59.152Z,26.99
2018-08-19T07:39:27.191Z,27.02
2018-08-19T07:41:55.035Z,26.97
2018-08-19T07:44:22.770Z,27.12
2018-08-19T07:46:50.448Z,27.43
2018-08-19T07:49:18.100Z,27.67
2018-08-19T07:51:45.911Z,27.92
2018-08-19T07:54:13.450Z,28.15
2018-08-19T07:56:41.102Z,28.36
2018-08-19T07:59:10.174Z,28.59
2018-08-19T08:01:38.738Z,28.77
2018-08-19T08:04:06.902Z,29.08
2018-08-19T08:06:35.138Z,29.51
2018-08-19T08:09:06.033Z,29.74
2018-08-19T08:11:34.121Z,29.99
2018-08-19T08:14:02.334Z,30.14
2018-08-19T08:16:30.148Z,30.39
2018-08-19T08:18:58.063Z,30.45
2018-08-19T08:21:29.129Z,30.84
2018-08-19T08:23:56.946Z,31.31
2018-08-19T08:26:25.013Z,31.75
2018-08-19T08:28:58.078Z,31.99
2018-08-19T08:31:25.823Z,32.44
2018-08-19T08:33:53.429Z,32.75
2018-08-19T08:36:21.086Z,33.10
2018-08-19T08:38:48.823Z,33.44
2018-08-19T08:41:16.421Z,33.63
2018-08-19T08:43:44.120Z,33.87
2018-08-19T08:46:11.847Z,34.02
2018-08-19T08:48:39.536Z,34.63
2018-08-19T08:51:07.192Z,35.02
2018-08-19T08:53:42.144Z,35.28
2018-08-19T08:56:09.842Z,35.26
2018-08-19T08:58:37.509Z,35.31
2018-08-19T09:01:05.245Z,35.47
2018-08-19T09:03:32.894Z,35.51
2018-08-19T09:06:00.515Z,35.60
2018-08-19T09:08:28.438Z,35.81
2018-08-19T09:10:57.381Z,36.10
2018-08-19T09:13:25.052Z,36.29
2018-08-19T09:15:52.699Z,36.55
2018-08-19T09:18:20.415Z,36.72
2018-08-19T09:20:48.027Z,36.93
2018-08-19T09:23:15.824Z,37.10
2018-08-19T09:25:43.394Z,37.08
2018-08-19T09:28:11.080Z,37.25
2018-08-19T09:30:41.423Z,37.17
2018-08-19T09:33:09.374Z,37.28
2018-08-19T09:35:38.091Z,36.95
2018-08-19T09:38:13.122Z,37.27
2018-08-19T09:40:41.095Z,37.51
2018-08-19T09:43:09.130Z,37.67
2018-08-19T09:45:37.020Z,37.03
2018-08-19T09:48:05.383Z,37.37
2018-08-19T09:50:33.974Z,37.42
2018-08-19T09:53:01.899Z,37.12
2018-08-19T09:55:35.039Z,37.16
2018-08-19T09:58:02.838Z,37.29
2018-08-19T10:00:36.076Z,37.08
2018-08-19T10:03:03.888Z,36.55
2018-08-19T10:05:33.448Z,36.64
2018-08-19T10:08:01.312Z,37.13
2018-08-19T10:10:29.554Z,37.06
2018-08-19T10:12:57.319Z,36.76
2018-08-19T10:15:24.952Z,36.90
2018-08-19T10:17:52.609Z,36.94
2018-08-19T10:20:20.294Z,37.17
2018-08-19T10:22:48.027Z,37.01
2018-08-19T10:25:17.662Z,36.84
2018-08-19T10:27:49.755Z,37.26
2018-08-19T10:30:18.484Z,37.29
2018-08-19T10:32:50.211Z,37.75
2018-08-19T10:35:18.375Z,38.11
2018-08-19T10:37:46.500Z,38.38
2018-08-19T10:40:14.211Z,38.73
2018-08-19T10:42:42.122Z,39.10
2018-08-19T10:45:17.245Z,39.22
2018-08-19T10:47:44.924Z,39.10
2018-08-19T10:50:12.620Z,38.85
2018-08-19T10:52:41.436Z,39.06
2018-08-19T10:55:10.086Z,39.12
2018-08-19T10:57:38.083Z,39.63
2018-08-19T11:00:10.600Z,39.30
2018-08-19T11:02:38.275Z,39.64
2018-08-19T11:05:05.956Z,39.81
2018-08-19T11:07:33.591Z,40.24
2018-08-19T11:10:16.768Z,40.25
2018-08-19T11:12:45.198Z,40.81
2018-08-19T11:15:27.412Z,40.16
2018-08-19T11:17:55.464Z,40.53
2018-08-19T11:20:38.627Z,40.56
2018-08-19T11:23:10.786Z,41.12
2018-08-19T11:25:38.395Z,41.16
2018-08-19T11:28:48.569Z,41.40
2018-08-19T11:31:23.689Z,42.05
2018-08-19T11:33:52.372Z,42.35
2018-08-19T11:36:21.590Z,42.30
2018-08-19T11:38:50.998Z,42.21
2018-08-19T11:41:19.150Z,42.65
2018-08-19T11:43:47.948Z,42.47
2018-08-19T11:46:15.662Z,42.46
2018-08-19T11:48:43.490Z,43.19
2018-08-19T11:51:11.435Z,43.57
2018-08-19T11:53:39.074Z,42.52
2018-08-19T11:56:06.892Z,43.07
2018-08-19T11:58:44.229Z,43.61
2018-08-19T12:01:13.041Z,44.18
2018-08-19T12:03:54.568Z,44.00
2018-08-19T12:06:24.717Z,42.97
2018-08-19T12:08:53.444Z,43.10
2018-08-19T12:11:21.208Z,42.87
2018-08-19T12:13:52.070Z,42.94
2018-08-19T12:16:21.731Z,43.35
2018-08-19T12:18:49.671Z,43.39
2018-08-19T12:21:17.403Z,43.62
2018-08-19T12:23:45.143Z,43.79
2018-08-19T12:26:12.718Z,43.73
2018-08-19T12:28:40.347Z,43.44
2018-08-19T12:31:10.196Z,42.82
2018-08-19T12:33:37.787Z,42.36
2018-08-19T12:36:06.118Z,41.47
2018-08-19T12:38:33.788Z,42.27
2018-08-19T12:41:03.511Z,42.19
2018-08-19T12:43:31.780Z,43.14
2018-08-19T12:45:59.932Z,44.01
2018-08-19T12:48:27.771Z,41.97
2018-08-19T12:50:59.953Z,40.25
2018-08-19T12:53:27.529Z,41.48
2018-08-19T12:55:55.168Z,42.51
2018-08-19T12:58:22.942Z,43.30
2018-08-19T13:00:50.544Z,44.03
2018-08-19T13:03:18.233Z,44.48
2018-08-19T13:05:59.471Z,44.82
2018-08-19T13:08:27.240Z,45.24
2018-08-19T13:10:54.920Z,45.49
2018-08-19T13:13:22.618Z,45.23
2018-08-19T13:15:50.254Z,45.29
2018-08-19T13:18:28.263Z,45.70
2018-08-19T13:21:03.186Z,45.87
2018-08-19T13:23:32.554Z,45.88
2018-08-19T13:26:00.636Z,45.76
2018-08-19T13:28:28.403Z,45.30
2018-08-19T13:30:56.283Z,45.13
2018-08-19T13:33:24.723Z,45.18
2018-08-19T13:35:52.621Z,45.25
2018-08-19T13:38:33.259Z,44.82
2018-08-19T13:41:02.664Z,44.71
2018-08-19T13:43:30.317Z,43.16
2018-08-19T13:45:58.040Z,41.53
2018-08-19T13:48:25.706Z,41.16
2018-08-19T13:50:53.344Z,42.14
2018-08-19T13:53:21.096Z,42.53
2018-08-19T13:55:48.723Z,43.00
2018-08-19T13:58:16.529Z,43.59
2018-08-19T14:00:44.629Z,44.02
2018-08-19T14:03:12.526Z,42.35
2018-08-19T14:05:40.309Z,41.38
2018-08-19T14:08:07.924Z,40.25
2018-08-19T14:10:35.543Z,41.09
2018-08-19T14:13:03.452Z,41.03
2018-08-19T14:15:31.163Z,41.08
2018-08-19T14:17:58.774Z,42.07
2018-08-19T14:20:26.400Z,42.34
2018-08-19T14:22:54.134Z,42.69
2018-08-19T14:25:21.872Z,40.76
2018-08-19T14:27:49.519Z,39.61
2018-08-19T14:30:17.470Z,39.76
2018-08-19T14:32:46.091Z,41.28
2018-08-19T14:35:13.736Z,42.21
2018-08-19T14:37:41.636Z,42.68
2018-08-19T14:40:13.453Z,43.03
2018-08-19T14:42:41.259Z,43.31
2018-08-19T14:45:08.934Z,43.25
2018-08-19T14:47:36.555Z,43.33
2018-08-19T14:50:08.106Z,43.52
2018-08-19T14:52:35.804Z,43.65
2018-08-19T14:55:03.648Z,43.75
2018-08-19T14:57:31.301Z,43.64
2018-08-19T14:59:59.002Z,43.66
2018-08-19T15:02:26.610Z,43.55
2018-08-19T15:04:54.229Z,43.60
2018-08-19T15:07:21.878Z,43.59
2018-08-19T15:09:51.104Z,43.45
2018-08-19T15:12:22.957Z,43.06
2018-08-19T15:14:51.018Z,42.89
2018-08-19T15:17:18.727Z,42.74
2018-08-19T15:19:48.635Z,42.55
2018-08-19T15:22:16.475Z,42.23
2018-08-19T15:24:44.064Z,41.95
2018-08-19T15:27:11.754Z,41.75
2018-08-19T15:29:41.939Z,41.45
2018-08-19T15:32:09.946Z,41.25
2018-08-19T15:34:37.463Z,41.14
2018-08-19T15:37:05.320Z,40.90
2018-08-19T15:39:32.929Z,40.53
2018-08-19T15:42:00.571Z,40.19
2018-08-19T15:44:28.239Z,39.85
2018-08-19T15:46:55.860Z,39.45
2018-08-19T15:49:24.022Z,38.88
2018-08-19T15:51:51.901Z,38.43
2018-08-19T15:54:19.622Z,37.98
2018-08-19T15:56:47.315Z,37.40
2018-08-19T15:59:14.907Z,36.80
2018-08-19T16:01:42.703Z,36.19
2018-08-19T16:04:21.989Z,35.78
2018-08-19T16:06:51.142Z,35.36
2018-08-19T16:09:20.111Z,34.97
2018-08-19T16:11:48.415Z,34.78
2018-08-19T16:14:22.150Z,34.55
2018-08-19T16:16:49.868Z,34.37
2018-08-19T16:19:17.592Z,34.22
2018-08-19T16:21:46.642Z,34.12
2018-08-19T16:24:14.294Z,33.97
2018-08-19T16:26:42.188Z,33.86
2018-08-19T16:29:09.808Z,33.75
2018-08-19T16:31:37.644Z,33.57
2018-08-19T16:34:05.533Z,33.51
2018-08-19T16:36:33.244Z,33.41
2018-08-19T16:39:01.047Z,33.31
2018-08-19T16:41:28.848Z,33.29
2018-08-19T16:43:56.758Z,33.21
2018-08-19T16:46:24.546Z,33.13
2018-08-19T16:48:52.226Z,33.04
2018-08-19T16:51:20.001Z,32.96
2018-08-19T16:53:47.627Z,32.83
2018-08-19T16:56:15.314Z,32.70
2018-08-19T16:58:42.930Z,32.61
2018-08-19T17:01:10.704Z,32.57
2018-08-19T17:03:39.422Z,32.51
2018-08-19T17:06:10.071Z,32.44
2018-08-19T17:08:38.155Z,32.34
2018-08-19T17:11:06.028Z,32.29
2018-08-19T17:13:33.683Z,32.18
2018-08-19T17:16:01.316Z,32.08
2018-08-19T17:18:28.992Z,31.97
2018-08-19T17:20:56.632Z,31.85
2018-08-19T17:23:24.786Z,31.76
2018-08-19T17:25:52.390Z,31.63
2018-08-19T17:28:22.075Z,31.54
2018-08-19T17:30:51.293Z,31.55
2018-08-19T17:33:23.364Z,31.39
2018-08-19T17:35:50.981Z,31.35
2018-08-19T17:38:18.679Z,31.24
2018-08-19T17:40:46.329Z,31.15
2018-08-19T17:43:13.923Z,31.10
2018-08-19T17:45:41.798Z,31.08
2018-08-19T17:48:09.597Z,30.99
2018-08-19T17:50:37.579Z,30.92
2018-08-19T17:53:05.687Z,30.82
2018-08-19T17:55:33.450Z,30.71
2018-08-19T17:58:01.223Z,30.65
2018-08-19T18:00:28.904Z,30.60
2018-08-19T18:02:56.531Z,30.50
2018-08-19T18:05:24.210Z,30.40
2018-08-19T18:07:52.878Z,30.27
2018-08-19T18:10:20.532Z,30.15
2018-08-19T18:12:48.447Z,30.09
2018-08-19T18:15:16.311Z,30.03
2018-08-19T18:17:57.308Z,29.93
2018-08-19T18:20:26.505Z,29.76
2018-08-19T18:22:55.530Z,29.68
2018-08-19T18:25:24.506Z,29.58
2018-08-19T18:27:52.134Z,29.47
2018-08-19T18:30:21.609Z,29.36
2018-08-19T18:32:49.948Z,29.27
2018-08-19T18:35:17.811Z,29.22
2018-08-19T18:37:45.692Z,29.13
2018-08-19T18:40:33.222Z,28.99
2018-08-19T18:43:01.623Z,28.84
2018-08-19T18:45:29.419Z,28.73
2018-08-19T18:48:01.922Z,28.62
2018-08-19T18:50:29.637Z,28.50
2018-08-19T18:52:57.339Z,28.46
2018-08-19T18:55:25.164Z,28.38
2018-08-19T18:57:54.859Z,28.30
2018-08-19T19:00:24.422Z,28.20
2018-08-19T19:02:59.144Z,28.11
2018-08-19T19:05:38.920Z,28.04
2018-08-19T19:08:17.197Z,28.00
2018-08-19T19:11:19.351Z,27.93
2018-08-19T19:13:47.307Z,27.90
2018-08-19T19:16:19.058Z,27.86
2018-08-19T19:18:46.694Z,27.81
2018-08-19T19:21:14.302Z,27.77
2018-08-19T19:23:43.701Z,27.73
2018-08-19T19:26:11.455Z,27.69
2018-08-19T19:28:39.081Z,27.62
2018-08-19T19:31:11.739Z,27.51
2018-08-19T19:33:39.391Z,27.44
2018-08-19T19:36:15.641Z,27.39
2018-08-19T19:38:59.022Z,27.34
2018-08-19T19:41:31.733Z,27.29
2018-08-19T19:45:04.136Z,27.22
2018-08-19T19:47:31.759Z,27.11
2018-08-19T19:49:59.663Z,27.03
2018-08-19T19:52:27.705Z,26.97
2018-08-19T19:54:55.404Z,26.90
2018-08-19T19:57:23.066Z,26.87
2018-08-19T19:59:50.742Z,26.83
2018-08-19T20:02:30.925Z,26.79
2018-08-19T20:04:59.099Z,26.77
2018-08-19T20:07:27.193Z,26.78
2018-08-19T20:09:54.945Z,26.75
2018-08-19T20:12:28.595Z,26.72
2018-08-19T20:14:57.211Z,26.71
2018-08-19T20:17:24.798Z,26.64
2018-08-19T20:19:52.383Z,26.59
2018-08-19T20:22:20.150Z,26.52
2018-08-19T20:24:47.889Z,26.44
2018-08-19T20:27:15.974Z,26.36
2018-08-19T20:29:43.751Z,26.36
2018-08-19T20:32:11.370Z,26.30
2018-08-19T20:34:39.014Z,26.26
2018-08-19T20:37:06.656Z,26.20
2018-08-19T20:39:34.303Z,26.10
2018-08-19T20:42:01.932Z,26.10
2018-08-19T20:44:29.622Z,26.15
2018-08-19T20:46:57.823Z,26.14
2018-08-19T20:49:26.395Z,26.12
2018-08-19T20:51:55.061Z,26.09
2018-08-19T20:54:22.702Z,26.09
2018-08-19T20:56:50.300Z,26.05
2018-08-19T20:59:25.471Z,25.99
2018-08-19T21:01:53.223Z,25.92
2018-08-19T21:04:20.873Z,25.90
2018-08-19T21:06:48.536Z,25.97
2018-08-19T21:09:16.120Z,25.89
2018-08-19T21:11:43.704Z,25.75
2018-08-19T21:14:11.491Z,25.78
2018-08-19T21:16:39.093Z,25.78
2018-08-19T21:19:06.939Z,25.73
2018-08-19T21:21:34.852Z,25.71
2018-08-19T21:24:02.475Z,25.62
2018-08-19T21:26:30.124Z,25.51
2018-08-19T21:29:03.408Z,25.48
2018-08-19T21:31:32.095Z,25.46
2018-08-19T21:33:59.962Z,25.42
2018-08-19T21:36:27.864Z,25.39
2018-08-19T21:38:55.714Z,25.37
2018-08-19T21:41:31.316Z,25.34
2018-08-19T21:43:58.912Z,25.32
2018-08-19T21:46:26.752Z,25.29
2018-08-19T21:48:54.454Z,25.28
2018-08-19T21:51:22.036Z,25.34
2018-08-19T21:53:49.621Z,25.38
2018-08-19T21:56:17.234Z,25.32
2018-08-19T21:58:44.832Z,25.28
2018-08-19T22:01:18.118Z,25.29
2018-08-19T22:03:48.941Z,25.05
2018-08-19T22:06:16.622Z,25.17
2018-08-19T22:08:44.380Z,25.13
2018-08-19T22:11:12.040Z,25.12
2018-08-19T22:13:39.661Z,25.11
2018-08-19T22:16:07.347Z,25.13
2018-08-19T22:18:35.131Z,25.13
2018-08-19T22:21:23.840Z,25.07
2018-08-19T22:23:55.112Z,25.17
2018-08-19T22:26:22.756Z,25.34
2018-08-19T22:29:06.989Z,25.38
2018-08-19T22:31:34.652Z,25.41
2018-08-19T22:34:02.262Z,25.45
2018-08-19T22:36:30.095Z,25.42
2018-08-19T22:38:57.720Z,25.42
2018-08-19T22:41:27.705Z,25.35
2018-08-19T22:43:56.028Z,25.30
2018-08-19T22:46:24.015Z,25.21
2018-08-19T22:48:52.818Z,25.24
2018-08-19T22:51:20.801Z,25.30
2018-08-19T22:53:51.222Z,25.29
2018-08-19T22:56:19.427Z,25.28
2018-08-19T22:58:47.130Z,25.15
2018-08-19T23:01:14.917Z,25.11
2018-08-19T23:03:42.674Z,25.04
2018-08-19T23:06:10.350Z,25.01
2018-08-19T23:08:38.201Z,25.00
2018-08-19T23:11:05.854Z,24.95
2018-08-19T23:13:44.846Z,24.83
2018-08-19T23:16:13.037Z,24.75
2018-08-19T23:18:41.477Z,24.75
2018-08-19T23:21:09.498Z,24.74
2018-08-19T23:23:37.238Z,24.76
2018-08-19T23:26:05.295Z,24.78
2018-08-19T23:28:32.930Z,24.76
2018-08-19T23:31:00.547Z,24.73
2018-08-19T23:33:28.179Z,24.69
2018-08-19T23:35:55.783Z,24.64
2018-08-19T23:38:23.415Z,24.57
2018-08-19T23:40:51.096Z,24.53
2018-08-19T23:43:18.763Z,24.47
2018-08-19T23:45:46.413Z,24.39
2018-08-19T23:48:13.991Z,24.36
2018-08-19T23:50:41.633Z,24.32
2018-08-19T23:53:10.566Z,24.28
2018-08-19T23:55:38.585Z,24.19
2018-08-19T23:58:06.398Z,24.08
